sensor_id;sensor_type;location;lat;lon;timestamp;P1;durP1;ratioP1;P2;durP2;ratioP2
28988;SDS011;16089;59.952;10.818;2023-04-06T00:01:53;3.40;;;0.57;;
28988;SDS011;16089;59.952;10.818;2023-04-06T00:04:20;3.03;;;0.80;;
28988;SDS011;16089;59.952;10.818;2023-04-06T00:06:46;4.35;;;0.70;;
28988;SDS011;16089;59.952;10.818;2023-04-06T00:09:12;3.33;;;1.23;;
28988;SDS011;16089;59.952;10.818;2023-04-06T00:11:39;3.50;;;0.90;;
28988;SDS011;16089;59.952;10.818;2023-04-06T00:14:06;4.22;;;0.90;;
28988;SDS011;16089;59.952;10.818;2023-04-06T00:16:34;2.20;;;0.65;;
28988;SDS011;16089;59.952;10.818;2023-04-06T00:19:00;1.92;;;0.82;;
28988;SDS011;16089;59.952;10.818;2023-04-06T00:21:27;1.35;;;0.70;;
28988;SDS011;16089;59.952;10.818;2023-04-06T00:23:53;2.03;;;0.75;;
28988;SDS011;16089;59.952;10.818;2023-04-06T00:26:20;2.55;;;0.93;;
28988;SDS011;16089;59.952;10.818;2023-04-06T00:28:46;1.50;;;0.63;;
28988;SDS011;16089;59.952;10.818;2023-04-06T00:31:14;1.40;;;0.65;;
28988;SDS011;16089;59.952;10.818;2023-04-06T00:33:42;1.88;;;0.82;;
28988;SDS011;16089;59.952;10.818;2023-04-06T00:36:09;1.58;;;0.70;;
28988;SDS011;16089;59.952;10.818;2023-04-06T00:38:35;0.82;;;0.50;;
28988;SDS011;16089;59.952;10.818;2023-04-06T00:41:02;1.75;;;0.80;;
28988;SDS011;16089;59.952;10.818;2023-04-06T00:43:29;1.23;;;0.60;;
28988;SDS011;16089;59.952;10.818;2023-04-06T00:45:55;4.15;;;0.90;;
28988;SDS011;16089;59.952;10.818;2023-04-06T00:48:22;1.48;;;0.60;;
28988;SDS011;16089;59.952;10.818;2023-04-06T00:50:49;2.15;;;0.60;;
28988;SDS011;16089;59.952;10.818;2023-04-06T00:53:16;1.77;;;0.50;;
28988;SDS011;16089;59.952;10.818;2023-04-06T00:55:42;1.20;;;0.60;;
28988;SDS011;16089;59.952;10.818;2023-04-06T00:58:09;3.63;;;0.85;;
28988;SDS011;16089;59.952;10.818;2023-04-06T01:00:35;2.40;;;0.70;;
28988;SDS011;16089;59.952;10.818;2023-04-06T01:03:01;1.02;;;0.60;;
28988;SDS011;16089;59.952;10.818;2023-04-06T01:05:32;2.13;;;0.88;;
28988;SDS011;16089;59.952;10.818;2023-04-06T01:08:00;1.95;;;0.60;;
28988;SDS011;16089;59.952;10.818;2023-04-06T01:10:27;1.15;;;0.63;;
28988;SDS011;16089;59.952;10.818;2023-04-06T01:12:53;1.73;;;0.77;;
28988;SDS011;16089;59.952;10.818;2023-04-06T01:15:20;2.00;;;0.63;;
28988;SDS011;16089;59.952;10.818;2023-04-06T01:17:46;2.33;;;0.75;;
28988;SDS011;16089;59.952;10.818;2023-04-06T01:20:13;1.83;;;0.80;;
28988;SDS011;16089;59.952;10.818;2023-04-06T01:22:41;3.67;;;0.80;;
28988;SDS011;16089;59.952;10.818;2023-04-06T01:25:08;1.83;;;0.80;;
28988;SDS011;16089;59.952;10.818;2023-04-06T01:27:34;3.28;;;0.90;;
28988;SDS011;16089;59.952;10.818;2023-04-06T01:30:01;3.13;;;0.77;;
28988;SDS011;16089;59.952;10.818;2023-04-06T01:32:28;3.05;;;0.80;;
28988;SDS011;16089;59.952;10.818;2023-04-06T01:34:54;2.65;;;0.93;;
28988;SDS011;16089;59.952;10.818;2023-04-06T01:37:20;2.33;;;0.70;;
28988;SDS011;16089;59.952;10.818;2023-04-06T01:39:48;3.40;;;0.80;;
28988;SDS011;16089;59.952;10.818;2023-04-06T01:42:15;2.13;;;0.88;;
28988;SDS011;16089;59.952;10.818;2023-04-06T01:44:41;2.67;;;0.85;;
28988;SDS011;16089;59.952;10.818;2023-04-06T01:47:07;2.65;;;1.05;;
28988;SDS011;16089;59.952;10.818;2023-04-06T01:49:34;2.92;;;0.82;;
28988;SDS011;16089;59.952;10.818;2023-04-06T01:52:00;2.15;;;0.77;;
28988;SDS011;16089;59.952;10.818;2023-04-06T01:54:27;3.15;;;0.80;;
28988;SDS011;16089;59.952;10.818;2023-04-06T01:56:54;1.45;;;0.70;;
28988;SDS011;16089;59.952;10.818;2023-04-06T01:59:21;1.90;;;0.80;;
28988;SDS011;16089;59.952;10.818;2023-04-06T02:01:47;3.03;;;0.88;;
28988;SDS011;16089;59.952;10.818;2023-04-06T02:04:14;2.28;;;1.08;;
28988;SDS011;16089;59.952;10.818;2023-04-06T02:06:40;1.55;;;0.65;;
28988;SDS011;16089;59.952;10.818;2023-04-06T02:09:06;1.95;;;1.10;;
28988;SDS011;16089;59.952;10.818;2023-04-06T02:11:33;3.40;;;1.05;;
28988;SDS011;16089;59.952;10.818;2023-04-06T02:14:01;11.88;;;1.00;;
28988;SDS011;16089;59.952;10.818;2023-04-06T02:16:28;2.33;;;0.90;;
28988;SDS011;16089;59.952;10.818;2023-04-06T02:18:54;1.73;;;0.73;;
28988;SDS011;16089;59.952;10.818;2023-04-06T02:21:20;1.85;;;0.80;;
28988;SDS011;16089;59.952;10.818;2023-04-06T02:23:47;2.42;;;0.70;;
28988;SDS011;16089;59.952;10.818;2023-04-06T02:26:14;2.88;;;0.90;;
28988;SDS011;16089;59.952;10.818;2023-04-06T02:28:40;2.03;;;0.80;;
28988;SDS011;16089;59.952;10.818;2023-04-06T02:31:08;3.45;;;1.13;;
28988;SDS011;16089;59.952;10.818;2023-04-06T02:33:36;2.95;;;0.93;;
28988;SDS011;16089;59.952;10.818;2023-04-06T02:36:02;2.10;;;0.95;;
28988;SDS011;16089;59.952;10.818;2023-04-06T02:38:28;1.67;;;0.77;;
28988;SDS011;16089;59.952;10.818;2023-04-06T02:40:55;3.63;;;0.80;;
28988;SDS011;16089;59.952;10.818;2023-04-06T02:43:21;2.65;;;0.90;;
28988;SDS011;16089;59.952;10.818;2023-04-06T02:45:48;3.20;;;0.80;;
28988;SDS011;16089;59.952;10.818;2023-04-06T02:48:15;1.58;;;0.80;;
28988;SDS011;16089;59.952;10.818;2023-04-06T02:50:42;2.05;;;0.90;;
28988;SDS011;16089;59.952;10.818;2023-04-06T02:53:08;1.92;;;1.05;;
28988;SDS011;16089;59.952;10.818;2023-04-06T02:55:35;1.35;;;0.63;;
28988;SDS011;16089;59.952;10.818;2023-04-06T02:58:01;2.70;;;1.10;;
28988;SDS011;16089;59.952;10.818;2023-04-06T03:00:27;2.03;;;0.60;;
28988;SDS011;16089;59.952;10.818;2023-04-06T03:02:53;1.70;;;0.80;;
28988;SDS011;16089;59.952;10.818;2023-04-06T03:05:21;2.22;;;0.85;;
28988;SDS011;16089;59.952;10.818;2023-04-06T03:07:48;2.35;;;1.00;;
28988;SDS011;16089;59.952;10.818;2023-04-06T03:10:14;1.45;;;0.70;;
28988;SDS011;16089;59.952;10.818;2023-04-06T03:12:41;2.28;;;1.00;;
28988;SDS011;16089;59.952;10.818;2023-04-06T03:15:07;1.48;;;0.77;;
28988;SDS011;16089;59.952;10.818;2023-04-06T03:17:34;2.70;;;1.00;;
28988;SDS011;16089;59.952;10.818;2023-04-06T03:20:00;3.17;;;0.80;;
28988;SDS011;16089;59.952;10.818;2023-04-06T03:22:28;2.35;;;0.80;;
28988;SDS011;16089;59.952;10.818;2023-04-06T03:24:55;2.08;;;0.80;;
28988;SDS011;16089;59.952;10.818;2023-04-06T03:27:21;2.42;;;0.80;;
28988;SDS011;16089;59.952;10.818;2023-04-06T03:29:47;5.45;;;1.10;;
28988;SDS011;16089;59.952;10.818;2023-04-06T03:32:14;4.28;;;0.90;;
28988;SDS011;16089;59.952;10.818;2023-04-06T03:34:40;1.85;;;0.75;;
28988;SDS011;16089;59.952;10.818;2023-04-06T03:37:06;2.28;;;0.80;;
28988;SDS011;16089;59.952;10.818;2023-04-06T03:39:34;1.38;;;0.57;;
28988;SDS011;16089;59.952;10.818;2023-04-06T03:42:01;3.63;;;1.10;;
28988;SDS011;16089;59.952;10.818;2023-04-06T03:44:27;1.67;;;0.80;;
28988;SDS011;16089;59.952;10.818;2023-04-06T03:46:53;1.80;;;1.13;;
28988;SDS011;16089;59.952;10.818;2023-04-06T03:49:20;2.42;;;0.90;;
28988;SDS011;16089;59.952;10.818;2023-04-06T03:51:46;1.83;;;0.80;;
28988;SDS011;16089;59.952;10.818;2023-04-06T03:54:13;2.38;;;0.77;;
28988;SDS011;16089;59.952;10.818;2023-04-06T03:56:40;3.83;;;0.90;;
28988;SDS011;16089;59.952;10.818;2023-04-06T03:59:07;3.08;;;0.90;;
28988;SDS011;16089;59.952;10.818;2023-04-06T04:01:33;1.80;;;0.80;;
28988;SDS011;16089;59.952;10.818;2023-04-06T04:03:59;2.33;;;0.85;;
28988;SDS011;16089;59.952;10.818;2023-04-06T04:06:26;1.95;;;0.82;;
28988;SDS011;16089;59.952;10.818;2023-04-06T04:08:52;1.88;;;0.90;;
28988;SDS011;16089;59.952;10.818;2023-04-06T04:11:18;1.63;;;0.80;;
28988;SDS011;16089;59.952;10.818;2023-04-06T04:13:46;2.50;;;0.80;;
28988;SDS011;16089;59.952;10.818;2023-04-06T04:16:12;1.80;;;0.80;;
28988;SDS011;16089;59.952;10.818;2023-04-06T04:18:39;1.80;;;0.75;;
28988;SDS011;16089;59.952;10.818;2023-04-06T04:21:08;1.65;;;0.73;;
28988;SDS011;16089;59.952;10.818;2023-04-06T04:23:34;2.35;;;0.77;;
28988;SDS011;16089;59.952;10.818;2023-04-06T04:26:01;1.58;;;0.80;;
28988;SDS011;16089;59.952;10.818;2023-04-06T04:28:27;2.83;;;0.80;;
28988;SDS011;16089;59.952;10.818;2023-04-06T04:30:55;2.72;;;0.90;;
28988;SDS011;16089;59.952;10.818;2023-04-06T04:33:21;1.98;;;0.80;;
28988;SDS011;16089;59.952;10.818;2023-04-06T04:35:48;3.55;;;0.80;;
28988;SDS011;16089;59.952;10.818;2023-04-06T04:38:14;2.25;;;1.00;;
28988;SDS011;16089;59.952;10.818;2023-04-06T04:40:40;1.63;;;0.70;;
28988;SDS011;16089;59.952;10.818;2023-04-06T04:43:07;1.85;;;0.80;;
28988;SDS011;16089;59.952;10.818;2023-04-06T04:45:33;3.35;;;0.98;;
28988;SDS011;16089;59.952;10.818;2023-04-06T04:48:01;2.45;;;0.90;;
28988;SDS011;16089;59.952;10.818;2023-04-06T04:50:27;2.55;;;0.80;;
28988;SDS011;16089;59.952;10.818;2023-04-06T04:52:53;2.78;;;1.00;;
28988;SDS011;16089;59.952;10.818;2023-04-06T04:55:20;2.60;;;0.90;;
28988;SDS011;16089;59.952;10.818;2023-04-06T04:57:46;1.75;;;0.90;;
28988;SDS011;16089;59.952;10.818;2023-04-06T05:00:13;1.65;;;0.73;;
28988;SDS011;16089;59.952;10.818;2023-04-06T05:02:39;3.30;;;0.88;;
28988;SDS011;16089;59.952;10.818;2023-04-06T05:05:07;2.85;;;0.90;;
28988;SDS011;16089;59.952;10.818;2023-04-06T05:07:34;2.85;;;0.90;;
28988;SDS011;16089;59.952;10.818;2023-04-06T05:10:00;2.40;;;0.80;;
28988;SDS011;16089;59.952;10.818;2023-04-06T05:12:27;3.03;;;1.20;;
28988;SDS011;16089;59.952;10.818;2023-04-06T05:14:53;1.67;;;0.70;;
28988;SDS011;16089;59.952;10.818;2023-04-06T05:17:19;3.08;;;0.85;;
28988;SDS011;16089;59.952;10.818;2023-04-06T05:19:46;2.13;;;1.00;;
28988;SDS011;16089;59.952;10.818;2023-04-06T05:22:14;2.55;;;1.00;;
28988;SDS011;16089;59.952;10.818;2023-04-06T05:24:42;2.15;;;0.95;;
28988;SDS011;16089;59.952;10.818;2023-04-06T05:27:08;4.80;;;1.13;;
28988;SDS011;16089;59.952;10.818;2023-04-06T05:29:35;7.72;;;1.30;;
28988;SDS011;16089;59.952;10.818;2023-04-06T05:32:01;4.13;;;1.88;;
28988;SDS011;16089;59.952;10.818;2023-04-06T05:34:28;2.72;;;1.10;;
28988;SDS011;16089;59.952;10.818;2023-04-06T05:36:54;3.58;;;1.20;;
28988;SDS011;16089;59.952;10.818;2023-04-06T05:39:22;3.08;;;1.10;;
28988;SDS011;16089;59.952;10.818;2023-04-06T05:41:48;2.55;;;0.90;;
28988;SDS011;16089;59.952;10.818;2023-04-06T05:44:15;2.63;;;1.17;;
28988;SDS011;16089;59.952;10.818;2023-04-06T05:46:41;2.45;;;0.98;;
28988;SDS011;16089;59.952;10.818;2023-04-06T05:49:07;2.78;;;1.23;;
28988;SDS011;16089;59.952;10.818;2023-04-06T05:51:34;3.00;;;1.23;;
28988;SDS011;16089;59.952;10.818;2023-04-06T05:54:00;3.30;;;1.02;;
28988;SDS011;16089;59.952;10.818;2023-04-06T05:56:28;3.28;;;1.10;;
28988;SDS011;16089;59.952;10.818;2023-04-06T05:58:55;2.30;;;1.10;;
28988;SDS011;16089;59.952;10.818;2023-04-06T06:01:21;1.83;;;0.90;;
28988;SDS011;16089;59.952;10.818;2023-04-06T06:03:48;2.13;;;1.10;;
28988;SDS011;16089;59.952;10.818;2023-04-06T06:06:14;2.58;;;1.08;;
28988;SDS011;16089;59.952;10.818;2023-04-06T06:08:40;3.45;;;1.10;;
28988;SDS011;16089;59.952;10.818;2023-04-06T06:11:07;3.47;;;1.13;;
28988;SDS011;16089;59.952;10.818;2023-04-06T06:13:34;2.28;;;1.10;;
28988;SDS011;16089;59.952;10.818;2023-04-06T06:16:01;1.73;;;0.98;;
28988;SDS011;16089;59.952;10.818;2023-04-06T06:18:30;2.50;;;0.98;;
28988;SDS011;16089;59.952;10.818;2023-04-06T06:20:56;2.63;;;1.30;;
28988;SDS011;16089;59.952;10.818;2023-04-06T06:23:22;2.47;;;1.20;;
28988;SDS011;16089;59.952;10.818;2023-04-06T06:25:49;3.47;;;1.08;;
28988;SDS011;16089;59.952;10.818;2023-04-06T06:28:15;3.50;;;1.20;;
28988;SDS011;16089;59.952;10.818;2023-04-06T06:30:43;2.72;;;1.10;;
28988;SDS011;16089;59.952;10.818;2023-04-06T06:33:10;1.67;;;0.70;;
28988;SDS011;16089;59.952;10.818;2023-04-06T06:35:36;2.30;;;0.93;;
28988;SDS011;16089;59.952;10.818;2023-04-06T06:38:02;2.40;;;0.90;;
28988;SDS011;16089;59.952;10.818;2023-04-06T06:40:29;2.13;;;0.90;;
28988;SDS011;16089;59.952;10.818;2023-04-06T06:42:55;2.65;;;0.95;;
28988;SDS011;16089;59.952;10.818;2023-04-06T06:45:21;2.20;;;0.98;;
28988;SDS011;16089;59.952;10.818;2023-04-06T06:47:51;2.95;;;0.85;;
28988;SDS011;16089;59.952;10.818;2023-04-06T06:50:18;2.38;;;1.08;;
28988;SDS011;16089;59.952;10.818;2023-04-06T06:52:44;4.22;;;1.10;;
28988;SDS011;16089;59.952;10.818;2023-04-06T06:55:11;1.75;;;0.93;;
28988;SDS011;16089;59.952;10.818;2023-04-06T06:57:37;1.90;;;1.00;;
28988;SDS011;16089;59.952;10.818;2023-04-06T07:00:04;2.53;;;1.10;;
28988;SDS011;16089;59.952;10.818;2023-04-06T07:02:33;2.42;;;1.00;;
28988;SDS011;16089;59.952;10.818;2023-04-06T07:05:01;2.22;;;1.00;;
28988;SDS011;16089;59.952;10.818;2023-04-06T07:07:27;2.63;;;1.20;;
28988;SDS011;16089;59.952;10.818;2023-04-06T07:09:53;1.95;;;1.00;;
28988;SDS011;16089;59.952;10.818;2023-04-06T07:12:20;3.00;;;1.10;;
28988;SDS011;16089;59.952;10.818;2023-04-06T07:14:46;2.17;;;0.90;;
28988;SDS011;16089;59.952;10.818;2023-04-06T07:17:12;3.28;;;0.90;;
28988;SDS011;16089;59.952;10.818;2023-04-06T07:19:39;2.65;;;0.90;;
28988;SDS011;16089;59.952;10.818;2023-04-06T07:22:07;3.05;;;1.02;;
28988;SDS011;16089;59.952;10.818;2023-04-06T07:24:33;3.17;;;0.95;;
28988;SDS011;16089;59.952;10.818;2023-04-06T07:26:59;1.48;;;0.80;;
28988;SDS011;16089;59.952;10.818;2023-04-06T07:29:26;2.85;;;1.10;;
28988;SDS011;16089;59.952;10.818;2023-04-06T07:31:53;2.60;;;1.20;;
28988;SDS011;16089;59.952;10.818;2023-04-06T07:34:20;2.33;;;1.00;;
28988;SDS011;16089;59.952;10.818;2023-04-06T07:36:46;2.45;;;1.10;;
28988;SDS011;16089;59.952;10.818;2023-04-06T07:39:14;2.22;;;1.10;;
28988;SDS011;16089;59.952;10.818;2023-04-06T07:41:40;2.35;;;1.00;;
28988;SDS011;16089;59.952;10.818;2023-04-06T07:44:07;1.80;;;1.02;;
28988;SDS011;16089;59.952;10.818;2023-04-06T07:46:33;4.10;;;1.42;;
28988;SDS011;16089;59.952;10.818;2023-04-06T07:49:00;2.53;;;1.10;;
28988;SDS011;16089;59.952;10.818;2023-04-06T07:51:27;4.30;;;1.25;;
28988;SDS011;16089;59.952;10.818;2023-04-06T07:53:53;3.15;;;1.10;;
28988;SDS011;16089;59.952;10.818;2023-04-06T07:56:21;2.65;;;1.40;;
28988;SDS011;16089;59.952;10.818;2023-04-06T07:58:47;2.05;;;1.20;;
28988;SDS011;16089;59.952;10.818;2023-04-06T08:01:14;4.07;;;1.30;;
28988;SDS011;16089;59.952;10.818;2023-04-06T08:03:40;2.42;;;1.20;;
28988;SDS011;16089;59.952;10.818;2023-04-06T08:06:06;2.42;;;1.20;;
28988;SDS011;16089;59.952;10.818;2023-04-06T08:08:33;2.10;;;1.08;;
28988;SDS011;16089;59.952;10.818;2023-04-06T08:10:59;2.33;;;1.10;;
28988;SDS011;16089;59.952;10.818;2023-04-06T08:13:29;2.00;;;0.98;;
28988;SDS011;16089;59.952;10.818;2023-04-06T08:15:55;2.75;;;1.27;;
28988;SDS011;16089;59.952;10.818;2023-04-06T08:18:21;3.00;;;1.35;;
28988;SDS011;16089;59.952;10.818;2023-04-06T08:20:50;2.42;;;1.08;;
28988;SDS011;16089;59.952;10.818;2023-04-06T08:23:16;4.13;;;1.55;;
28988;SDS011;16089;59.952;10.818;2023-04-06T08:25:42;2.25;;;1.20;;
28988;SDS011;16089;59.952;10.818;2023-04-06T08:28:09;3.22;;;1.23;;
28988;SDS011;16089;59.952;10.818;2023-04-06T08:30:37;3.30;;;1.35;;
28988;SDS011;16089;59.952;10.818;2023-04-06T08:33:05;2.42;;;1.13;;
28988;SDS011;16089;59.952;10.818;2023-04-06T08:35:31;2.45;;;1.10;;
28988;SDS011;16089;59.952;10.818;2023-04-06T08:37:58;3.78;;;1.30;;
28988;SDS011;16089;59.952;10.818;2023-04-06T08:40:24;2.92;;;1.20;;
28988;SDS011;16089;59.952;10.818;2023-04-06T08:42:52;5.38;;;1.40;;
28988;SDS011;16089;59.952;10.818;2023-04-06T08:45:20;2.95;;;1.35;;
28988;SDS011;16089;59.952;10.818;2023-04-06T08:47:48;2.10;;;1.00;;
28988;SDS011;16089;59.952;10.818;2023-04-06T08:50:16;4.90;;;1.20;;
28988;SDS011;16089;59.952;10.818;2023-04-06T08:52:42;2.80;;;1.00;;
28988;SDS011;16089;59.952;10.818;2023-04-06T08:55:09;3.95;;;1.15;;
28988;SDS011;16089;59.952;10.818;2023-04-06T08:57:35;3.10;;;1.13;;
28988;SDS011;16089;59.952;10.818;2023-04-06T09:00:02;4.18;;;1.23;;
28988;SDS011;16089;59.952;10.818;2023-04-06T09:02:28;3.38;;;1.20;;
28988;SDS011;16089;59.952;10.818;2023-04-06T09:04:57;3.10;;;1.27;;
28988;SDS011;16089;59.952;10.818;2023-04-06T09:07:23;2.40;;;1.13;;
28988;SDS011;16089;59.952;10.818;2023-04-06T09:09:50;2.88;;;1.30;;
28988;SDS011;16089;59.952;10.818;2023-04-06T09:12:23;5.18;;;1.83;;
28988;SDS011;16089;59.952;10.818;2023-04-06T09:14:49;3.25;;;1.70;;
28988;SDS011;16089;59.952;10.818;2023-04-06T09:17:19;2.67;;;1.30;;
28988;SDS011;16089;59.952;10.818;2023-04-06T09:19:46;3.22;;;1.50;;
28988;SDS011;16089;59.952;10.818;2023-04-06T09:22:14;2.70;;;1.30;;
28988;SDS011;16089;59.952;10.818;2023-04-06T09:24:41;3.15;;;1.40;;
28988;SDS011;16089;59.952;10.818;2023-04-06T09:27:07;3.40;;;1.65;;
28988;SDS011;16089;59.952;10.818;2023-04-06T09:29:34;2.97;;;1.30;;
28988;SDS011;16089;59.952;10.818;2023-04-06T09:32:02;3.92;;;1.40;;
28988;SDS011;16089;59.952;10.818;2023-04-06T09:34:29;2.72;;;1.23;;
28988;SDS011;16089;59.952;10.818;2023-04-06T09:36:55;1.98;;;1.10;;
28988;SDS011;16089;59.952;10.818;2023-04-06T09:39:23;2.55;;;1.10;;
28988;SDS011;16089;59.952;10.818;2023-04-06T09:41:50;6.50;;;1.50;;
28988;SDS011;16089;59.952;10.818;2023-04-06T09:44:17;3.13;;;1.27;;
28988;SDS011;16089;59.952;10.818;2023-04-06T09:46:44;3.03;;;1.40;;
28988;SDS011;16089;59.952;10.818;2023-04-06T09:49:11;3.75;;;1.23;;
28988;SDS011;16089;59.952;10.818;2023-04-06T09:51:38;3.42;;;1.38;;
28988;SDS011;16089;59.952;10.818;2023-04-06T09:54:05;1.92;;;1.13;;
28988;SDS011;16089;59.952;10.818;2023-04-06T09:56:37;2.70;;;1.40;;
28988;SDS011;16089;59.952;10.818;2023-04-06T09:59:08;2.28;;;1.13;;
28988;SDS011;16089;59.952;10.818;2023-04-06T10:01:34;2.83;;;1.10;;
28988;SDS011;16089;59.952;10.818;2023-04-06T10:04:04;2.40;;;1.35;;
28988;SDS011;16089;59.952;10.818;2023-04-06T10:06:32;2.90;;;1.50;;
28988;SDS011;16089;59.952;10.818;2023-04-06T10:09:00;2.88;;;1.40;;
28988;SDS011;16089;59.952;10.818;2023-04-06T10:11:28;3.25;;;1.70;;
28988;SDS011;16089;59.952;10.818;2023-04-06T10:13:56;4.13;;;2.00;;
28988;SDS011;16089;59.952;10.818;2023-04-06T10:16:22;2.17;;;1.23;;
28988;SDS011;16089;59.952;10.818;2023-04-06T10:18:52;2.65;;;1.13;;
28988;SDS011;16089;59.952;10.818;2023-04-06T10:21:21;4.40;;;1.10;;
28988;SDS011;16089;59.952;10.818;2023-04-06T10:23:48;1.67;;;1.00;;
28988;SDS011;16089;59.952;10.818;2023-04-06T10:26:15;3.78;;;1.10;;
28988;SDS011;16089;59.952;10.818;2023-04-06T10:28:43;2.08;;;0.95;;
28988;SDS011;16089;59.952;10.818;2023-04-06T10:31:10;2.40;;;1.30;;
28988;SDS011;16089;59.952;10.818;2023-04-06T10:33:37;3.53;;;1.27;;
28988;SDS011;16089;59.952;10.818;2023-04-06T10:36:10;3.03;;;1.30;;
28988;SDS011;16089;59.952;10.818;2023-04-06T10:38:37;2.10;;;1.02;;
28988;SDS011;16089;59.952;10.818;2023-04-06T10:41:04;3.78;;;1.42;;
28988;SDS011;16089;59.952;10.818;2023-04-06T10:43:33;2.08;;;1.10;;
28988;SDS011;16089;59.952;10.818;2023-04-06T10:46:00;9.75;;;3.63;;
28988;SDS011;16089;59.952;10.818;2023-04-06T10:48:37;3.33;;;1.20;;
28988;SDS011;16089;59.952;10.818;2023-04-06T10:51:07;2.83;;;1.40;;
28988;SDS011;16089;59.952;10.818;2023-04-06T10:53:34;2.45;;;1.15;;
28988;SDS011;16089;59.952;10.818;2023-04-06T10:56:00;4.25;;;1.50;;
28988;SDS011;16089;59.952;10.818;2023-04-06T10:58:27;3.92;;;1.20;;
28988;SDS011;16089;59.952;10.818;2023-04-06T11:00:53;4.13;;;1.58;;
28988;SDS011;16089;59.952;10.818;2023-04-06T11:03:20;2.72;;;1.30;;
28988;SDS011;16089;59.952;10.818;2023-04-06T11:05:49;2.42;;;1.00;;
28988;SDS011;16089;59.952;10.818;2023-04-06T11:08:22;3.35;;;1.35;;
28988;SDS011;16089;59.952;10.818;2023-04-06T11:10:48;2.97;;;1.42;;
28988;SDS011;16089;59.952;10.818;2023-04-06T11:13:15;3.05;;;1.58;;
28988;SDS011;16089;59.952;10.818;2023-04-06T11:15:42;2.88;;;1.50;;
28988;SDS011;16089;59.952;10.818;2023-04-06T11:18:08;2.63;;;1.30;;
28988;SDS011;16089;59.952;10.818;2023-04-06T11:20:35;3.38;;;1.42;;
28988;SDS011;16089;59.952;10.818;2023-04-06T11:23:03;3.63;;;1.52;;
28988;SDS011;16089;59.952;10.818;2023-04-06T11:25:30;4.22;;;1.50;;
28988;SDS011;16089;59.952;10.818;2023-04-06T11:27:57;4.45;;;1.40;;
28988;SDS011;16089;59.952;10.818;2023-04-06T11:30:23;3.28;;;1.30;;
28988;SDS011;16089;59.952;10.818;2023-04-06T11:32:50;4.63;;;1.70;;
28988;SDS011;16089;59.952;10.818;2023-04-06T11:35:19;4.00;;;1.75;;
28988;SDS011;16089;59.952;10.818;2023-04-06T11:37:46;3.25;;;1.50;;
28988;SDS011;16089;59.952;10.818;2023-04-06T11:40:15;3.85;;;1.50;;
28988;SDS011;16089;59.952;10.818;2023-04-06T11:42:41;4.65;;;1.58;;
28988;SDS011;16089;59.952;10.818;2023-04-06T11:45:09;3.95;;;1.48;;
28988;SDS011;16089;59.952;10.818;2023-04-06T11:47:41;3.70;;;1.70;;
28988;SDS011;16089;59.952;10.818;2023-04-06T11:50:08;3.95;;;1.83;;
28988;SDS011;16089;59.952;10.818;2023-04-06T11:52:35;4.65;;;1.60;;
28988;SDS011;16089;59.952;10.818;2023-04-06T11:55:09;2.83;;;1.60;;
28988;SDS011;16089;59.952;10.818;2023-04-06T12:00:04;3.40;;;1.90;;
28988;SDS011;16089;59.952;10.818;2023-04-06T12:02:31;3.47;;;2.00;;
28988;SDS011;16089;59.952;10.818;2023-04-06T12:04:58;3.45;;;1.65;;
28988;SDS011;16089;59.952;10.818;2023-04-06T12:07:24;3.92;;;1.83;;
28988;SDS011;16089;59.952;10.818;2023-04-06T12:09:50;4.38;;;2.05;;
28988;SDS011;16089;59.952;10.818;2023-04-06T12:12:17;4.43;;;1.92;;
28988;SDS011;16089;59.952;10.818;2023-04-06T12:14:43;4.03;;;1.90;;
28988;SDS011;16089;59.952;10.818;2023-04-06T12:17:11;4.25;;;2.10;;
28988;SDS011;16089;59.952;10.818;2023-04-06T12:19:37;4.15;;;1.90;;
28988;SDS011;16089;59.952;10.818;2023-04-06T12:22:03;3.95;;;1.95;;
28988;SDS011;16089;59.952;10.818;2023-04-06T12:24:30;5.20;;;1.98;;
28988;SDS011;16089;59.952;10.818;2023-04-06T12:26:56;4.65;;;1.90;;
28988;SDS011;16089;59.952;10.818;2023-04-06T12:29:23;4.00;;;1.65;;
28988;SDS011;16089;59.952;10.818;2023-04-06T12:31:50;4.15;;;1.92;;
28988;SDS011;16089;59.952;10.818;2023-04-06T12:34:19;4.28;;;1.95;;
28988;SDS011;16089;59.952;10.818;2023-04-06T12:36:45;4.00;;;2.03;;
28988;SDS011;16089;59.952;10.818;2023-04-06T12:39:12;6.05;;;2.03;;
28988;SDS011;16089;59.952;10.818;2023-04-06T12:41:38;3.28;;;1.90;;
28988;SDS011;16089;59.952;10.818;2023-04-06T12:44:06;3.60;;;1.85;;
28988;SDS011;16089;59.952;10.818;2023-04-06T12:46:32;3.58;;;1.65;;
28988;SDS011;16089;59.952;10.818;2023-04-06T12:48:59;3.33;;;1.88;;
28988;SDS011;16089;59.952;10.818;2023-04-06T12:51:28;4.00;;;2.10;;
28988;SDS011;16089;59.952;10.818;2023-04-06T12:53:56;4.82;;;2.05;;
28988;SDS011;16089;59.952;10.818;2023-04-06T12:56:22;4.45;;;2.15;;
28988;SDS011;16089;59.952;10.818;2023-04-06T12:58:50;4.63;;;2.40;;
28988;SDS011;16089;59.952;10.818;2023-04-06T13:01:19;4.45;;;2.13;;
28988;SDS011;16089;59.952;10.818;2023-04-06T13:03:46;6.40;;;2.10;;
28988;SDS011;16089;59.952;10.818;2023-04-06T13:06:12;4.68;;;2.05;;
28988;SDS011;16089;59.952;10.818;2023-04-06T13:08:41;5.13;;;2.55;;
28988;SDS011;16089;59.952;10.818;2023-04-06T13:11:07;4.13;;;2.20;;
28988;SDS011;16089;59.952;10.818;2023-04-06T13:13:34;4.10;;;2.00;;
28988;SDS011;16089;59.952;10.818;2023-04-06T13:16:01;4.22;;;2.03;;
28988;SDS011;16089;59.952;10.818;2023-04-06T13:18:28;7.75;;;2.30;;
28988;SDS011;16089;59.952;10.818;2023-04-06T13:20:58;6.97;;;2.67;;
28988;SDS011;16089;59.952;10.818;2023-04-06T13:23:24;5.30;;;2.30;;
28988;SDS011;16089;59.952;10.818;2023-04-06T13:25:57;4.72;;;2.53;;
28988;SDS011;16089;59.952;10.818;2023-04-06T13:28:25;5.65;;;2.10;;
28988;SDS011;16089;59.952;10.818;2023-04-06T13:30:51;4.85;;;2.45;;
28988;SDS011;16089;59.952;10.818;2023-04-06T13:33:18;4.85;;;2.33;;
28988;SDS011;16089;59.952;10.818;2023-04-06T13:35:44;5.72;;;2.42;;
28988;SDS011;16089;59.952;10.818;2023-04-06T13:38:10;4.03;;;2.10;;
28988;SDS011;16089;59.952;10.818;2023-04-06T13:40:38;3.63;;;1.63;;
28988;SDS011;16089;59.952;10.818;2023-04-06T13:43:06;4.65;;;2.10;;
28988;SDS011;16089;59.952;10.818;2023-04-06T13:45:32;5.65;;;2.33;;
28988;SDS011;16089;59.952;10.818;2023-04-06T13:47:59;5.22;;;2.40;;
28988;SDS011;16089;59.952;10.818;2023-04-06T13:50:25;4.75;;;2.20;;
28988;SDS011;16089;59.952;10.818;2023-04-06T13:52:52;5.28;;;2.38;;
28988;SDS011;16089;59.952;10.818;2023-04-06T13:55:18;5.00;;;2.30;;
28988;SDS011;16089;59.952;10.818;2023-04-06T13:57:44;5.25;;;1.90;;
28988;SDS011;16089;59.952;10.818;2023-04-06T14:00:13;3.72;;;1.98;;
28988;SDS011;16089;59.952;10.818;2023-04-06T14:02:39;4.05;;;2.08;;
28988;SDS011;16089;59.952;10.818;2023-04-06T14:05:06;5.10;;;2.03;;
28988;SDS011;16089;59.952;10.818;2023-04-06T14:07:33;3.97;;;1.90;;
28988;SDS011;16089;59.952;10.818;2023-04-06T14:09:59;5.45;;;2.38;;
28988;SDS011;16089;59.952;10.818;2023-04-06T14:12:26;4.32;;;2.20;;
28988;SDS011;16089;59.952;10.818;2023-04-06T14:14:52;3.80;;;1.90;;
28988;SDS011;16089;59.952;10.818;2023-04-06T14:17:20;4.65;;;1.95;;
28988;SDS011;16089;59.952;10.818;2023-04-06T14:19:47;4.10;;;2.00;;
28988;SDS011;16089;59.952;10.818;2023-04-06T14:22:13;5.22;;;2.00;;
28988;SDS011;16089;59.952;10.818;2023-04-06T14:24:40;4.15;;;1.77;;
28988;SDS011;16089;59.952;10.818;2023-04-06T14:27:06;5.03;;;2.13;;
28988;SDS011;16089;59.952;10.818;2023-04-06T14:29:33;5.82;;;1.98;;
28988;SDS011;16089;59.952;10.818;2023-04-06T14:31:59;5.78;;;2.17;;
28988;SDS011;16089;59.952;10.818;2023-04-06T14:34:27;5.43;;;2.10;;